Bridgeport Valley, California Weather observations

Data are for 10 minute period ending at time listed.
 Day   Time   Solar   Ave.   Ave.  Ave.  Vector  Max.   Baro.   Total    
  of    of     Rad.   Air    Rel.  Wind   Wind   Wind  Press.  Precip.   
Year   Day            Temp.  Hum.  Speed  Dir.   Gust                    
2016   (PST)  Kw/m2    F      %     mph   deg.    mph    mb.     in.     
-------------------------------------------------------------------------
 341   19:30   0.00   26.1    56   15.1    30    22.3   795.6    0.00 
 341   19:40   0.00   25.6    59   13.8    28    19.2   795.7    0.00 
 341   19:50   0.00   25.5    60   14.5    36    22.1   796.0    0.00 
 341   20:00   0.00   24.9    62   10.5    42    14.1   796.2    0.00 
 341   20:10   0.00   23.4    63    6.7    58    10.7   796.3    0.00 
 341   20:20   0.00   22.7    64    6.1    53    10.3   796.3    0.00 
 341   20:30   0.00   23.1    66    8.6    39    14.2   796.4    0.00 
 341   20:40   0.00   23.2    67    8.6    33    12.6   796.5    0.00 
 341   20:50   0.00   23.8    67    9.8    31    15.7   796.8    0.00 
 341   21:00   0.00   22.6    68    6.4    38     9.0   796.9    0.00 
 341   21:10   0.00   22.3    69    7.4    27    11.4   797.1    0.00 
 341   21:20   0.00   21.9    69    6.8    32     9.1   797.2    0.00 
 341   21:30   0.00   21.3    70    5.9    22     9.3   797.4    0.00 
 341   21:40   0.00   21.3    70    5.6    26     8.6   797.5    0.00 
 341   21:50   0.00   20.4    71    4.8     4     9.3   797.6    0.00 
 341   22:00   0.00   20.6    70    4.5    11     8.2   797.7    0.00 
 341   22:10   0.00   20.1    72    4.6     2     8.3   797.8    0.00 
 341   22:20   0.00   20.1    72    3.2    37     6.5   797.9    0.00 
 341   22:30   0.00   20.0    69    2.5    36     5.0   798.0    0.00 
 341   22:40   0.00   18.7    70    1.4    68     3.8   798.2    0.00 
 341   22:50   0.00   16.7    76    3.2   278     4.7   798.4    0.00 
 341   23:00   0.00   16.2    79    3.1   296     4.5   798.6    0.00 
 341   23:10   0.00   15.8    81    3.8   316     5.7   798.8    0.00 
 341   23:20   0.00   15.9    81    2.8   297     4.4   798.9    0.00 
 341   23:30   0.00   15.2    82    2.5   308     3.7   799.0    0.00 
 341   23:40   0.00   15.6    81    1.9   290     3.3   799.1    0.00 
 341   23:50   0.00   15.9    80    1.4   276     3.5   799.2    0.00 
 342    0:00   0.00   16.8    79    2.2   294     3.2   799.2    0.00 
 342    0:10   0.00   17.2    77    3.7   285     4.4   799.3    0.00 
 342    0:20   0.00   16.7    76    3.5   282     4.6   799.4    0.00 
 342    0:30   0.00   15.4    76    1.8   336     3.5   799.5    0.00 
 342    0:40   0.00   12.0    80    0.2   244     1.2   799.6    0.00 
 342    0:50   0.00   11.7    86    1.5   230     2.3   799.6    0.00 
 342    1:00   0.00   11.1    85    1.1   156     2.3   799.7    0.00 
 342    1:10   0.00   10.5    85    1.4   171     3.2   799.7    0.00 
 342    1:20   0.00   10.5    87    1.8   199     2.7   799.8    0.00 
 342    1:30   0.00   10.1    85    2.6   166     3.7   799.9    0.00 
 342    1:40   0.00    9.1    85    1.3   175     2.6   800.0    0.00 
 342    1:50   0.00    9.5    87    2.0   169     3.4   800.0    0.00 
 342    2:00   0.00    9.8    85    1.9   165     3.1   800.1    0.00 
 342    2:10   0.00    9.1    85    0.9   175     3.6   800.2    0.00 
 342    2:20   0.00    8.8    86    1.8   284     2.8   800.3    0.00 
 342    2:30   0.00    9.9    87    1.1   248     2.7   800.3    0.00 
 342    2:40   0.00    9.6    85    1.1   202     2.9   800.3    0.00 
 342    2:50   0.00    9.4    86    2.8   166     3.7   800.3    0.00 
 342    3:00   0.00    9.7    84    1.4   186     3.3   800.3    0.00 
 342    3:10   0.00    9.3    84    1.6   173     2.9   800.3    0.00 
 342    3:20   0.00    9.2    84    2.4   180     3.2   800.4    0.00 
 342    3:30   0.00    8.9    84    1.5   190     2.5   800.5    0.00 
 342    3:40   0.00    8.0    84    2.3   167     4.2   800.5    0.00 
 342    3:50   0.00    7.9    85    3.2   142     4.5   800.6    0.00 
 342    4:00   0.00    9.0    85    4.0   161     5.8   800.6    0.00 
 342    4:10   0.00    9.0    83    2.3   229     4.7   800.6    0.00 
 342    4:20   0.00    8.2    86    1.8   217     3.1   800.6    0.00 
 342    4:30   0.00    7.2    87    2.2   225     3.4   800.7    0.00 
 342    4:40   0.00    8.1    89    3.7   190     5.2   800.8    0.00 
 342    4:50   0.00   11.0    87    4.4   176     6.1   800.9    0.00 
 342    5:00   0.00   12.4    83    4.6   172     7.1   801.0    0.00 
 342    5:10   0.00   11.9    83    3.1   217     4.3   801.0    0.00 
 342    5:20   0.00   12.1    85    2.8   206     5.4   801.1    0.00 
 342    5:30   0.00   13.0    83    3.5   195     4.9   801.1    0.00 
 342    5:40   0.00   12.9    83    2.6   172     3.7   801.1    0.00 
 342    5:50   0.00   12.3    83    3.2   178     4.1   801.2    0.00 
 342    6:00   0.00   12.2    83    2.4   167     4.2   801.3    0.00 
 342    6:10   0.00   12.9    84    2.2   162     3.4   801.4    0.00 
 342    6:20   0.00   13.8    84    2.7   186     3.8   801.5    0.00 
 342    6:30   0.00   14.2    85    2.2   197     3.6   801.5    0.00 
 342    6:40   0.00   14.6    85    1.6   201     3.1   801.5    0.00 
 342    6:50   0.00   14.8    85    1.1   228     2.4   801.6    0.00 
 342    7:00   0.00   14.8    84    0.7   217     1.6   801.7    0.00 
 342    7:10   0.01   15.1    84    1.3   204     2.0   801.8    0.00 
 342    7:20   0.01   15.2    84    0.8   216     2.0   801.9    0.00 
 342    7:30   0.02   15.4    85    2.2   192     3.0   801.9    0.00 
 342    7:40   0.04   15.8    84    0.4   177     2.0   801.9    0.00 
 342    7:50   0.05   16.5    81    2.1   131     3.4   801.8    0.00 
 342    8:00   0.06   17.0    82    0.5    86     1.5   801.8    0.00 
 342    8:10   0.07   17.6    80    0.7   146     1.6   802.0    0.00 
 342    8:20   0.10   18.3    77    0.6   140     1.8   802.1    0.00 
 342    8:30   0.12   19.1    74    0.6   109     1.8   802.1    0.00 
 342    8:40   0.17   19.7    74    0.6    76     2.3   802.1    0.00 
 342    8:50   0.37   21.1    73    1.7    49     3.4   802.1    0.00 
 342    9:00   0.26   22.3    70    1.3    42     3.4   802.2    0.00 
 342    9:10   0.30   23.3    65    1.8   273     4.8   802.1    0.00 
 342    9:20   0.32   22.3    67    2.5   288     4.9   802.2    0.00 
 342    9:30   0.36   22.9    66    2.3   306     5.0   802.3    0.00 
 342    9:40   0.34   22.9    65    3.4   276     6.6   802.3    0.00 
 342    9:50   0.33   22.8    65    2.9   299     4.4   802.3    0.00 
 342   10:00   0.37   23.4    63    1.9   308     4.3   802.1    0.00 
 342   10:10   0.39   24.7    61    2.0   271     5.3   802.0    0.00 
 342   10:20   0.40   25.0    59    1.5   346     5.2   802.1    0.00 
 342   10:30   0.38   25.6    58    1.5    66     4.7   801.9    0.00 
 342   10:40   0.50   26.5    56    1.9   146     4.2   801.7    0.00 
 342   10:50   0.50   26.9    56    2.0   227     4.4   801.6    0.00 
 342   11:00   0.51   27.9    53    2.2   201     4.9   801.4    0.00 
 342   11:10   0.52   27.7    53    2.8   233     5.7   801.2    0.00 
 342   11:20   0.54   28.4    52    2.2   288     5.8   801.1    0.00 
 342   11:30   0.54   29.3    50    1.8   166     5.0   800.8    0.00 
 342   11:40   0.54   29.5    49    2.1    74     3.9   800.7    0.00 
 342   11:50   0.54   29.9    49    2.1   331     5.6   800.6    0.00 
 342   12:00   0.56   30.9    47    1.6    50     4.2   800.5    0.00 
 342   12:10   0.57   31.6    45    1.8   187     3.7   800.3    0.00 
 342   12:20   0.54   32.0    45    2.0   168     5.6   800.2    0.00 
 342   12:30   0.20   31.6    45    1.5    72     4.6   800.1    0.00 
 342   12:40   0.19   31.1    46    1.0    85     2.3   799.9    0.00 
 342   12:50   0.22   31.5    46    1.1    22     2.3   799.8    0.00 
 342   13:00   0.22   31.9    45    1.0   109     2.8   799.6    0.00 
 342   13:10   0.26   32.3    44    2.3   350     5.6   799.6    0.00 
 342   13:20   0.28   32.5    44    1.5   231     3.1   799.7    0.00 
 342   13:30   0.32   33.6    42    1.3   132     2.9   799.5    0.00 
 342   13:40   0.23   33.6    43    1.8    46     4.2   799.6    0.00 
 342   13:50   0.17   32.9    44    2.5    57     4.2   799.6    0.00 
 342   14:00   0.24   33.0    44    2.0    50     4.2   799.6    0.00 
 342   14:10   0.20   33.5    43    3.1    37     5.3   799.5    0.00 
 342   14:20   0.20   33.4    43    2.9    23     4.2   799.5    0.00 
 342   14:30   0.34   34.8    41    1.8    10     3.4   799.5    0.00 
 342   14:40   0.19   34.9    40    2.3   349     4.1   799.6    0.00 
 342   14:50   0.11   34.6    41    2.2   347     3.6   799.9    0.00 
 342   15:00   0.11   34.5    42    4.2   354     6.2   799.9    0.00 
 342   15:10   0.19   35.1    41    5.7     6     8.6   800.0    0.00 
 342   15:20   0.10   34.2    42    6.4    33     8.6   799.9    0.00 
 342   15:30   0.11   33.7    42    4.4    32     7.7   800.0    0.00 
 342   15:40   0.12   34.1    41    3.7    30     6.6   800.0    0.00 
 342   15:50   0.06   33.9    40    2.7   358     7.0   799.9    0.00 
 342   16:00   0.04   33.5    42    1.9   319     3.1   800.1    0.00 
 342   16:10   0.02   33.0    45    2.9   356     4.9   800.1    0.00 
 342   16:20   0.01   32.6    48    2.8    14     4.4   800.1    0.00 
 342   16:30   0.01   32.2    48    3.2     6     4.6   800.2    0.00 
 342   16:40   0.01   31.8    49    4.7    26     6.4   800.3    0.00 
 342   16:50   0.00   31.2    51    1.8    36     5.3   800.3    0.00 
 342   17:00   0.00   30.7    53    2.5    67     6.6   800.2    0.00 
 342   17:10   0.00   30.6    51    5.0    85     8.3   800.0    0.00 
 342   17:20   0.00   30.8    50    1.3   182     3.0   799.9    0.00 
 342   17:30   0.00   30.1    54    2.1   329     3.6   799.8    0.00 
 342   17:40   0.00   30.2    54    2.2     6     3.5   799.8    0.00 
 342   17:50   0.00   30.6    55    3.3    28     5.3   799.8    0.00 
 342   18:00   0.00   31.0    53    4.2   138    12.2   799.7    0.00 
 342   18:10   0.00   32.7    46    9.4   154    15.1   799.6    0.00 
 342   18:20   0.00   32.4    46    9.2   156    13.9   799.7    0.00 
 342   18:30   0.00   32.3    46    7.4   143    11.3   799.7    0.00 
 342   18:40   0.00   32.3    45    7.5   133    13.2   799.6    0.00 
 342   18:50   0.00   32.0    45    7.1   131    12.8   799.6    0.00 
 342   19:00   0.00   31.6    47    3.9   119     5.8   799.7    0.00 
 342   19:10   0.00   31.4    50    4.0    65     6.8   800.0    0.00 
 342   19:20   0.00   30.9    52    5.2    82     7.9   800.0    0.00 

Return to Bridgeport Valley graphs page.


Western Regional Climate Center,wrcc@dri.edu